createdAt,value
2023-02-09T00:00:07.197Z,1.33
2023-02-09T00:02:34.044Z,0.80
2023-02-09T00:05:00.817Z,0.50
2023-02-09T00:07:27.607Z,1.98
2023-02-09T00:09:54.316Z,0.85
2023-02-09T00:12:39.695Z,1.00
2023-02-09T00:15:07.258Z,0.95
2023-02-09T00:17:35.960Z,0.77
2023-02-09T00:20:05.355Z,1.52
2023-02-09T00:22:32.313Z,0.70
2023-02-09T00:24:59.164Z,1.10
2023-02-09T00:27:25.986Z,2.00
2023-02-09T00:29:52.802Z,1.13
2023-02-09T00:32:19.554Z,1.20
2023-02-09T00:34:46.399Z,1.20
2023-02-09T00:37:13.361Z,1.25
2023-02-09T00:39:40.106Z,1.00
2023-02-09T00:42:06.853Z,1.50
2023-02-09T00:44:40.092Z,1.27
2023-02-09T00:47:08.650Z,1.23
2023-02-09T00:49:35.895Z,1.13
2023-02-09T00:52:02.763Z,1.83
2023-02-09T00:54:29.653Z,1.55
2023-02-09T00:56:56.495Z,1.10
2023-02-09T00:59:23.287Z,1.20
2023-02-09T01:01:50.056Z,1.77
2023-02-09T01:04:16.884Z,1.25
2023-02-09T01:06:43.720Z,0.98
2023-02-09T01:09:10.396Z,1.15
2023-02-09T01:11:37.150Z,1.20
2023-02-09T01:14:04.649Z,1.08
2023-02-09T01:16:32.311Z,1.10
2023-02-09T01:19:01.318Z,1.23
2023-02-09T01:21:28.704Z,1.60
2023-02-09T01:23:55.893Z,1.90
2023-02-09T01:26:22.996Z,1.70
2023-02-09T01:28:53.337Z,1.80
2023-02-09T01:31:29.946Z,1.50
2023-02-09T01:33:58.893Z,2.00
2023-02-09T01:36:25.974Z,1.70
2023-02-09T01:38:56.368Z,1.60
2023-02-09T01:41:23.471Z,1.80
2023-02-09T01:44:00.306Z,1.85
2023-02-09T01:46:30.088Z,1.85
2023-02-09T01:49:06.404Z,1.77
2023-02-09T01:51:38.345Z,1.83
2023-02-09T01:54:09.685Z,1.90
2023-02-09T01:56:40.791Z,1.90
2023-02-09T01:59:09.658Z,1.75
2023-02-09T02:01:37.764Z,1.70
2023-02-09T02:04:05.635Z,1.48
2023-02-09T02:06:32.614Z,1.35
2023-02-09T02:09:11.325Z,2.30
2023-02-09T02:11:40.504Z,1.60
2023-02-09T02:14:07.233Z,2.03
2023-02-09T02:17:02.163Z,1.38
2023-02-09T02:20:06.543Z,1.63
2023-02-09T02:22:33.233Z,1.88
2023-02-09T02:25:36.979Z,1.75
2023-02-09T02:28:41.814Z,1.83
2023-02-09T02:31:29.931Z,2.72
2023-02-09T02:34:20.348Z,1.63
2023-02-09T02:37:10.090Z,2.83
2023-02-09T02:39:58.589Z,1.70
2023-02-09T02:42:50.072Z,1.50
2023-02-09T02:45:38.833Z,1.92
2023-02-09T02:48:18.648Z,2.10
2023-02-09T02:50:54.581Z,1.65
2023-02-09T02:53:26.717Z,1.45
2023-02-09T02:55:56.709Z,1.67
2023-02-09T02:58:25.868Z,1.92
2023-02-09T03:00:57.615Z,1.52
2023-02-09T03:03:32.865Z,2.22
2023-02-09T03:06:03.636Z,2.33
2023-02-09T03:08:30.689Z,3.75
2023-02-09T03:10:58.263Z,2.50
2023-02-09T03:13:54.242Z,2.70
2023-02-09T03:16:26.913Z,2.53
2023-02-09T03:19:04.754Z,2.15
2023-02-09T03:21:46.584Z,2.33
2023-02-09T03:24:24.628Z,2.30
2023-02-09T03:26:57.738Z,1.92
2023-02-09T03:29:27.737Z,1.52
2023-02-09T03:31:55.293Z,1.80
2023-02-09T03:34:22.048Z,3.95
2023-02-09T03:36:54.720Z,2.17
2023-02-09T03:39:21.819Z,1.80
2023-02-09T03:41:48.574Z,1.60
2023-02-09T03:44:27.649Z,2.53
2023-02-09T03:47:00.521Z,1.77
2023-02-09T03:49:31.799Z,2.00
2023-02-09T03:52:00.913Z,3.28
2023-02-09T03:54:29.828Z,1.83
2023-02-09T03:56:57.819Z,2.83
2023-02-09T03:59:28.053Z,1.90
2023-02-09T04:01:56.635Z,1.95
2023-02-09T04:04:24.369Z,1.70
2023-02-09T04:06:51.404Z,2.50
2023-02-09T04:09:18.258Z,1.65
2023-02-09T04:11:45.117Z,2.13
2023-02-09T04:14:11.861Z,2.50
2023-02-09T04:16:39.045Z,1.55
2023-02-09T04:19:06.549Z,2.58
2023-02-09T04:21:33.283Z,3.13
2023-02-09T04:24:00.043Z,2.05
2023-02-09T04:26:26.833Z,3.05
2023-02-09T04:28:54.663Z,2.00
2023-02-09T04:31:21.429Z,2.00
2023-02-09T04:33:48.249Z,2.63
2023-02-09T04:36:15.451Z,3.08
2023-02-09T04:38:42.170Z,3.05
2023-02-09T04:41:09.848Z,2.47
2023-02-09T04:43:36.762Z,2.40
2023-02-09T04:46:03.805Z,2.03
2023-02-09T04:48:31.126Z,3.00
2023-02-09T04:50:58.149Z,2.13
2023-02-09T04:53:25.192Z,2.35
2023-02-09T04:55:52.924Z,2.78
2023-02-09T04:58:40.284Z,2.85
2023-02-09T05:01:09.436Z,3.35
2023-02-09T05:03:36.233Z,3.72
2023-02-09T05:06:05.096Z,2.35
2023-02-09T05:08:32.506Z,2.88
2023-02-09T05:10:59.327Z,2.13
2023-02-09T05:13:26.732Z,2.15
2023-02-09T05:15:54.055Z,3.15
2023-02-09T05:18:21.515Z,3.83
2023-02-09T05:20:48.966Z,2.50
2023-02-09T05:23:16.373Z,2.33
2023-02-09T05:25:43.217Z,1.95
2023-02-09T05:28:09.939Z,2.47
2023-02-09T05:30:37.709Z,2.03
2023-02-09T05:33:04.781Z,2.47
2023-02-09T05:35:31.732Z,2.42
2023-02-09T05:37:58.427Z,2.20
2023-02-09T05:40:25.287Z,1.90
2023-02-09T05:42:51.981Z,2.80
2023-02-09T05:45:18.874Z,2.22
2023-02-09T05:47:46.856Z,2.25
2023-02-09T05:50:13.894Z,1.65
2023-02-09T05:52:40.662Z,2.20
2023-02-09T05:55:07.443Z,3.08
2023-02-09T05:57:34.177Z,2.10
2023-02-09T06:00:01.019Z,2.20
2023-02-09T06:02:27.983Z,2.58
2023-02-09T06:04:56.870Z,1.52
2023-02-09T06:07:23.624Z,2.00
2023-02-09T06:09:50.501Z,2.85
2023-02-09T06:12:17.235Z,2.40
2023-02-09T06:14:43.997Z,2.33
2023-02-09T06:17:10.798Z,1.98
2023-02-09T06:19:38.274Z,2.05
2023-02-09T06:22:05.522Z,2.15
2023-02-09T06:24:32.222Z,1.83
2023-02-09T06:26:59.021Z,2.10
2023-02-09T06:29:25.840Z,1.90
2023-02-09T06:31:52.998Z,2.40
2023-02-09T06:34:19.806Z,2.22
2023-02-09T06:36:46.512Z,2.05
2023-02-09T06:39:13.222Z,2.60
2023-02-09T06:41:40.063Z,2.05
2023-02-09T06:44:06.844Z,1.88
2023-02-09T06:46:33.686Z,1.90
2023-02-09T06:49:00.568Z,2.00
2023-02-09T06:51:27.495Z,2.13
2023-02-09T06:53:54.311Z,2.35
2023-02-09T06:56:21.467Z,1.73
2023-02-09T06:58:48.361Z,2.40
2023-02-09T07:01:16.221Z,2.03
2023-02-09T07:03:43.381Z,2.03
2023-02-09T07:06:16.257Z,2.03
2023-02-09T07:08:43.687Z,1.77
2023-02-09T07:11:13.732Z,1.50
2023-02-09T07:13:40.507Z,2.05
2023-02-09T07:16:09.401Z,1.40
2023-02-09T07:18:37.238Z,2.20
2023-02-09T07:21:08.779Z,1.95
2023-02-09T07:23:36.448Z,1.10
2023-02-09T07:26:08.954Z,1.75
2023-02-09T07:28:37.990Z,2.30
2023-02-09T07:31:07.828Z,1.58
2023-02-09T07:33:35.422Z,2.40
2023-02-09T07:36:06.788Z,1.48
2023-02-09T07:38:34.135Z,2.72
2023-02-09T07:41:02.666Z,1.70
2023-02-09T07:43:29.629Z,1.73
2023-02-09T07:46:05.272Z,1.83
2023-02-09T07:48:33.062Z,1.40
2023-02-09T07:51:00.357Z,2.47
2023-02-09T07:53:28.353Z,1.70
2023-02-09T07:55:55.524Z,2.10
2023-02-09T07:58:23.111Z,1.50
2023-02-09T08:00:51.144Z,1.52
2023-02-09T08:03:21.425Z,1.92
2023-02-09T08:05:56.988Z,1.45
2023-02-09T08:08:23.748Z,1.70
2023-02-09T08:10:51.070Z,2.20
2023-02-09T08:13:18.155Z,2.97
2023-02-09T08:15:49.302Z,2.15
2023-02-09T08:18:21.629Z,2.03
2023-02-09T08:20:52.191Z,2.38
2023-02-09T08:23:28.864Z,2.13
2023-02-09T08:25:56.968Z,1.77
2023-02-09T08:28:34.820Z,1.63
2023-02-09T08:31:11.262Z,2.65
2023-02-09T08:33:40.150Z,1.88
2023-02-09T08:36:07.268Z,1.85
2023-02-09T08:38:36.810Z,1.92
2023-02-09T08:41:08.367Z,2.72
2023-02-09T08:43:35.710Z,2.85
2023-02-09T08:46:11.668Z,1.48
2023-02-09T08:48:40.519Z,2.42
2023-02-09T08:51:08.696Z,1.92
2023-02-09T08:53:35.614Z,2.25
2023-02-09T08:56:02.389Z,2.90
2023-02-09T08:58:30.400Z,1.98
2023-02-09T09:00:57.521Z,2.15
2023-02-09T09:03:30.017Z,2.22
2023-02-09T09:06:01.722Z,1.70
2023-02-09T09:08:29.310Z,1.95
2023-02-09T09:10:56.267Z,1.67
2023-02-09T09:13:24.412Z,1.85
2023-02-09T09:15:52.618Z,1.77
2023-02-09T09:18:19.454Z,1.90
2023-02-09T09:20:46.233Z,2.30
2023-02-09T09:23:13.325Z,3.55
2023-02-09T09:25:40.576Z,1.90
2023-02-09T09:28:08.644Z,2.00
2023-02-09T09:30:36.815Z,2.42
2023-02-09T09:33:03.780Z,2.30
2023-02-09T09:35:31.794Z,2.72
2023-02-09T09:37:58.767Z,2.63
2023-02-09T09:40:30.005Z,2.05
2023-02-09T09:43:00.745Z,1.70
2023-02-09T09:45:30.080Z,2.17
2023-02-09T09:47:57.502Z,2.28
2023-02-09T09:50:39.191Z,2.28
2023-02-09T09:53:33.427Z,2.90
2023-02-09T09:56:08.222Z,4.13
2023-02-09T09:58:39.214Z,2.17
2023-02-09T10:01:06.911Z,2.10
2023-02-09T10:03:33.707Z,2.22
2023-02-09T10:06:11.537Z,2.55
2023-02-09T10:08:55.563Z,3.78
2023-02-09T10:11:32.358Z,1.80
2023-02-09T10:13:59.474Z,1.60
2023-02-09T10:16:29.224Z,2.05
2023-02-09T10:19:01.937Z,2.65
2023-02-09T10:21:31.438Z,2.13
2023-02-09T10:24:00.856Z,3.28
2023-02-09T10:26:33.215Z,1.48
2023-02-09T10:31:40.487Z,2.03
2023-02-09T10:34:15.526Z,1.35
2023-02-09T10:36:51.878Z,2.72
2023-02-09T10:39:30.473Z,1.67
2023-02-09T10:42:14.416Z,1.88
2023-02-09T10:44:48.957Z,1.90
2023-02-09T10:47:23.524Z,1.60
2023-02-09T10:49:55.189Z,2.85
2023-02-09T10:52:24.011Z,1.73
2023-02-09T10:54:56.944Z,4.78
2023-02-09T10:57:30.175Z,1.65
2023-02-09T11:00:00.262Z,1.85
2023-02-09T11:02:35.642Z,2.08
2023-02-09T11:05:04.362Z,2.53
2023-02-09T11:07:41.211Z,1.63
2023-02-09T11:10:12.858Z,2.15
2023-02-09T11:12:39.628Z,2.22
2023-02-09T11:15:14.203Z,2.60
2023-02-09T11:17:50.981Z,2.15
2023-02-09T11:20:50.281Z,2.33
2023-02-09T11:23:38.355Z,2.10
2023-02-09T11:26:17.642Z,1.67
2023-02-09T11:28:48.062Z,2.80
2023-02-09T11:31:27.239Z,2.30
2023-02-09T11:34:00.126Z,1.58
2023-02-09T11:36:39.010Z,2.22
2023-02-09T11:39:19.628Z,2.22
2023-02-09T11:42:13.968Z,1.38
2023-02-09T11:44:56.908Z,1.88
2023-02-09T11:47:33.409Z,1.90
2023-02-09T11:50:04.985Z,2.03
2023-02-09T11:52:38.350Z,1.83
2023-02-09T11:55:38.474Z,2.53
2023-02-09T11:58:33.877Z,1.80
2023-02-09T12:01:42.772Z,1.58
2023-02-09T12:04:15.840Z,2.28
2023-02-09T12:06:48.555Z,2.88
2023-02-09T12:12:20.496Z,2.20
2023-02-09T12:15:00.357Z,2.28
2023-02-09T12:17:39.204Z,2.75
2023-02-09T12:20:06.834Z,2.38
2023-02-09T12:22:33.689Z,3.35
2023-02-09T12:25:12.551Z,2.20
2023-02-09T12:27:44.004Z,1.27
2023-02-09T12:33:24.614Z,2.35
2023-02-09T12:36:09.344Z,1.65
2023-02-09T12:38:56.826Z,2.10
2023-02-09T12:41:42.900Z,2.42
2023-02-09T12:44:09.551Z,1.70
2023-02-09T12:46:45.635Z,2.15
2023-02-09T12:49:12.291Z,2.05
2023-02-09T12:51:47.816Z,1.90
2023-02-09T12:54:41.004Z,2.17
2023-02-09T12:57:16.815Z,2.03
2023-02-09T12:59:56.290Z,2.33
2023-02-09T13:02:29.430Z,2.58
2023-02-09T13:04:56.064Z,3.67
2023-02-09T13:07:29.984Z,2.53
2023-02-09T13:10:00.737Z,2.17
2023-02-09T13:12:39.243Z,4.05
2023-02-09T13:15:13.285Z,2.30
2023-02-09T13:18:06.915Z,1.83
2023-02-09T13:20:36.596Z,2.10
2023-02-09T13:23:36.207Z,2.28
2023-02-09T13:26:17.787Z,2.83
2023-02-09T13:28:44.574Z,2.53
2023-02-09T13:31:26.162Z,2.42
2023-02-09T13:33:58.050Z,2.65
2023-02-09T13:37:06.437Z,2.65
2023-02-09T13:39:37.794Z,2.15
2023-02-09T13:42:25.811Z,3.13
2023-02-09T13:44:55.653Z,2.00
2023-02-09T13:47:23.130Z,2.13
2023-02-09T13:50:00.898Z,4.75
2023-02-09T13:52:33.687Z,3.38
2023-02-09T13:55:32.435Z,1.95
2023-02-09T13:58:02.974Z,2.25
2023-02-09T14:00:42.595Z,2.47
2023-02-09T14:03:20.384Z,2.10
2023-02-09T14:05:50.256Z,3.05
2023-02-09T14:08:19.074Z,3.42
2023-02-09T14:11:07.497Z,2.50
2023-02-09T14:13:42.666Z,2.13
2023-02-09T14:16:15.729Z,2.63
2023-02-09T14:19:00.597Z,2.15
2023-02-09T14:21:40.174Z,2.28
2023-02-09T14:24:19.243Z,2.15
2023-02-09T14:26:48.313Z,2.00
2023-02-09T14:29:18.202Z,2.47
2023-02-09T14:32:33.275Z,1.90
2023-02-09T14:35:17.438Z,3.72
2023-02-09T14:37:44.898Z,1.90
2023-02-09T14:40:11.972Z,1.88
2023-02-09T14:42:57.737Z,1.38
2023-02-09T14:45:32.198Z,1.60
2023-02-09T14:47:58.948Z,1.75
2023-02-09T14:50:25.713Z,1.33
2023-02-09T14:53:05.300Z,2.13
2023-02-09T14:55:33.716Z,2.45
2023-02-09T14:58:00.481Z,2.05
2023-02-09T15:00:29.221Z,1.77
2023-02-09T15:02:57.202Z,1.75
2023-02-09T15:05:26.091Z,1.55
2023-02-09T15:07:56.379Z,1.30
2023-02-09T15:10:27.976Z,3.00
2023-02-09T15:12:55.440Z,1.60
2023-02-09T15:15:23.428Z,2.20
2023-02-09T15:17:50.493Z,1.63
2023-02-09T15:20:21.499Z,1.63
2023-02-09T15:22:48.193Z,1.80
2023-02-09T15:25:15.687Z,1.40
2023-02-09T15:27:51.947Z,2.35
2023-02-09T15:30:24.751Z,1.58
2023-02-09T15:32:51.659Z,2.03
2023-02-09T15:35:21.548Z,2.00
2023-02-09T15:37:57.577Z,1.77
2023-02-09T15:40:50.289Z,2.08
2023-02-09T15:43:39.451Z,2.63
2023-02-09T15:46:07.353Z,2.55
2023-02-09T15:48:36.924Z,1.60
2023-02-09T15:51:03.899Z,1.70
2023-02-09T15:53:32.089Z,2.15
2023-02-09T15:55:59.661Z,3.90
2023-02-09T15:58:35.274Z,2.90
2023-02-09T16:01:02.485Z,3.00
2023-02-09T16:03:31.779Z,2.47
2023-02-09T16:06:01.701Z,3.28
2023-02-09T16:08:32.570Z,2.17
2023-02-09T16:11:01.159Z,1.70
2023-02-09T16:13:28.182Z,2.40
2023-02-09T16:16:00.319Z,3.03
2023-02-09T16:18:34.812Z,1.50
2023-02-09T16:21:01.554Z,1.80
2023-02-09T16:23:28.317Z,1.73
2023-02-09T16:25:55.359Z,1.90
2023-02-09T16:28:22.359Z,2.47
2023-02-09T16:30:57.665Z,2.70
2023-02-09T16:33:25.954Z,1.95
2023-02-09T16:35:58.972Z,2.10
2023-02-09T16:38:26.999Z,4.70
2023-02-09T16:40:55.638Z,3.20
2023-02-09T16:43:23.165Z,2.50
2023-02-09T16:46:02.820Z,2.33
2023-02-09T16:48:32.436Z,3.20
2023-02-09T16:50:59.706Z,3.97
2023-02-09T16:53:32.881Z,3.30
2023-02-09T16:56:05.812Z,4.35
2023-02-09T16:58:32.612Z,2.95
2023-02-09T17:00:59.413Z,4.20
2023-02-09T17:03:31.558Z,3.05
2023-02-09T17:05:58.410Z,3.00
2023-02-09T17:08:27.721Z,2.83
2023-02-09T17:10:56.381Z,5.18
2023-02-09T17:13:23.639Z,2.65
2023-02-09T17:15:59.148Z,2.00
2023-02-09T17:18:31.051Z,3.50
2023-02-09T17:21:02.099Z,3.35
2023-02-09T17:23:30.906Z,3.35
2023-02-09T17:25:57.995Z,3.13
2023-02-09T17:28:26.625Z,3.00
2023-02-09T17:30:57.664Z,3.00
2023-02-09T17:33:35.752Z,3.17
2023-02-09T17:36:25.353Z,3.17
2023-02-09T17:38:50.820Z,3.90
2023-02-09T17:41:26.700Z,3.55
2023-02-09T17:43:54.370Z,4.57
2023-02-09T17:46:21.436Z,4.68
2023-02-09T17:48:49.009Z,2.88
2023-02-09T17:51:28.823Z,4.72
2023-02-09T17:53:55.982Z,3.55
2023-02-09T17:56:22.732Z,4.28
2023-02-09T17:58:49.612Z,3.63
2023-02-09T18:01:27.868Z,5.13
2023-02-09T18:04:01.801Z,2.65
2023-02-09T18:06:37.597Z,4.25
2023-02-09T18:09:08.511Z,3.72
2023-02-09T18:11:52.492Z,2.70
2023-02-09T18:14:21.441Z,3.90
2023-02-09T18:16:48.487Z,4.05
2023-02-09T18:19:18.774Z,5.38
2023-02-09T18:21:54.596Z,4.40
2023-02-09T18:24:22.999Z,4.45
2023-02-09T18:26:51.263Z,4.93
2023-02-09T18:29:20.362Z,5.07
2023-02-09T18:31:47.163Z,4.68
2023-02-09T18:34:15.298Z,4.93
2023-02-09T18:36:42.477Z,4.72
2023-02-09T18:39:09.297Z,4.60
2023-02-09T18:41:36.047Z,5.53
2023-02-09T18:44:02.910Z,3.97
2023-02-09T18:46:29.744Z,5.00
2023-02-09T18:48:56.698Z,5.65
2023-02-09T18:51:23.686Z,5.07
2023-02-09T18:53:51.339Z,4.22
2023-02-09T18:56:22.627Z,3.78
2023-02-09T18:58:50.331Z,3.70
2023-02-09T19:01:20.524Z,2.70
2023-02-09T19:03:54.292Z,3.25
2023-02-09T19:06:22.755Z,3.85
2023-02-09T19:08:50.517Z,3.10
2023-02-09T19:11:19.882Z,3.70
2023-02-09T19:14:05.716Z,4.65
2023-02-09T19:16:32.779Z,5.03
2023-02-09T19:19:00.794Z,4.90
2023-02-09T19:21:28.365Z,4.65
2023-02-09T19:23:55.456Z,5.63
2023-02-09T19:26:22.346Z,5.05
2023-02-09T19:28:49.266Z,4.25
2023-02-09T19:31:17.795Z,4.88
2023-02-09T19:33:44.704Z,2.75
2023-02-09T19:36:12.069Z,3.78
2023-02-09T19:38:38.860Z,3.25
2023-02-09T19:41:12.561Z,3.10
2023-02-09T19:43:40.092Z,2.78
2023-02-09T19:46:09.999Z,3.10
2023-02-09T19:48:38.527Z,3.40
2023-02-09T19:51:06.827Z,5.13
2023-02-09T19:53:33.974Z,3.67
2023-02-09T19:56:00.893Z,4.10
2023-02-09T19:58:27.992Z,4.07
2023-02-09T20:00:56.195Z,3.83
2023-02-09T20:03:23.959Z,3.38
2023-02-09T20:05:51.498Z,3.97
2023-02-09T20:08:20.499Z,4.60
2023-02-09T20:10:47.636Z,3.63
2023-02-09T20:13:15.939Z,3.80
2023-02-09T20:15:44.202Z,4.63
2023-02-09T20:18:13.436Z,2.97
2023-02-09T20:20:43.360Z,4.20
2023-02-09T20:23:10.487Z,3.55
2023-02-09T20:25:41.034Z,5.20
2023-02-09T20:28:08.078Z,4.38
2023-02-09T20:30:35.294Z,5.22
2023-02-09T20:33:02.020Z,6.95
2023-02-09T20:35:28.766Z,6.28
2023-02-09T20:37:55.647Z,5.60
2023-02-09T20:40:22.808Z,5.30
2023-02-09T20:43:08.069Z,3.92
2023-02-09T20:45:53.679Z,3.92
2023-02-09T20:48:20.457Z,4.10
2023-02-09T20:50:47.515Z,6.03
2023-02-09T20:53:14.479Z,3.72
2023-02-09T20:55:42.757Z,4.78
2023-02-09T20:58:11.903Z,3.60
2023-02-09T21:00:39.357Z,4.93
2023-02-09T21:03:07.489Z,4.43
2023-02-09T21:05:34.840Z,5.03
2023-02-09T21:08:04.511Z,6.43
2023-02-09T21:10:35.880Z,3.60
2023-02-09T21:13:06.107Z,4.22
2023-02-09T21:15:33.075Z,4.63
2023-02-09T21:18:01.013Z,5.88
2023-02-09T21:20:32.168Z,5.25
2023-02-09T21:22:58.997Z,4.07
2023-02-09T21:25:27.759Z,3.80
2023-02-09T21:27:55.972Z,5.57
2023-02-09T21:30:22.820Z,3.72
2023-02-09T21:32:49.627Z,5.00
2023-02-09T21:35:16.716Z,6.32
2023-02-09T21:37:43.400Z,4.13
2023-02-09T21:40:12.500Z,4.32
2023-02-09T21:42:39.928Z,4.43
2023-02-09T21:45:08.025Z,3.88
2023-02-09T21:47:37.835Z,4.78
2023-02-09T21:50:07.043Z,5.53
2023-02-09T21:52:34.712Z,4.55
2023-02-09T21:55:01.541Z,4.60
2023-02-09T21:57:28.311Z,4.63
2023-02-09T21:59:56.720Z,4.68
2023-02-09T22:02:23.571Z,6.07
2023-02-09T22:04:50.702Z,5.50
2023-02-09T22:07:19.710Z,5.32
2023-02-09T22:09:46.920Z,5.38
2023-02-09T22:12:13.633Z,4.65
2023-02-09T22:14:40.370Z,4.68
2023-02-09T22:17:07.119Z,4.43
2023-02-09T22:19:34.056Z,4.60
2023-02-09T22:22:01.815Z,5.25
2023-02-09T22:24:30.098Z,4.05
2023-02-09T22:26:58.237Z,4.88
2023-02-09T22:29:24.956Z,5.50
2023-02-09T22:31:51.744Z,5.45
2023-02-09T22:34:18.592Z,5.75
2023-02-09T22:36:45.895Z,5.40
2023-02-09T22:39:12.970Z,6.25
2023-02-09T22:41:39.776Z,7.25
2023-02-09T22:44:10.202Z,5.78
2023-02-09T22:46:39.303Z,6.65
2023-02-09T22:49:14.661Z,4.45
2023-02-09T22:51:41.440Z,5.30
2023-02-09T22:54:08.145Z,3.95
2023-02-09T22:56:34.951Z,3.95
2023-02-09T22:59:01.892Z,3.15
2023-02-09T23:01:29.569Z,3.20
2023-02-09T23:03:57.331Z,3.88
2023-02-09T23:06:27.255Z,2.90
2023-02-09T23:08:59.513Z,2.92
2023-02-09T23:11:27.187Z,2.60
2023-02-09T23:14:08.400Z,2.20
2023-02-09T23:16:37.107Z,2.45
2023-02-09T23:19:07.003Z,2.90
2023-02-09T23:21:39.439Z,2.80
2023-02-09T23:26:33.888Z,2.50
2023-02-09T23:29:03.817Z,2.40
2023-02-09T23:31:31.334Z,2.28
2023-02-09T23:33:58.146Z,3.42
2023-02-09T23:36:27.831Z,3.08
2023-02-09T23:39:00.118Z,3.50
2023-02-09T23:41:30.142Z,2.90
2023-02-09T23:43:57.359Z,3.53
2023-02-09T23:46:28.604Z,3.10
2023-02-09T23:48:56.397Z,3.43
2023-02-09T23:51:26.839Z,2.33
2023-02-09T23:53:55.368Z,3.25
2023-02-09T23:56:22.801Z,2.53
2023-02-09T23:58:50.942Z,3.35
